Tuesday, July 29, 2014, 10:55 PM EDT

KEZF, Fredericksburg, Shannon Airport

Location: Fredericksburg, VA, United States Lat: 38.267
Local Time: 10:55 PM EDT ( 2:55 GMT) Lon: -77.45
Time Zone: US/Eastern Elev: 85 ft

Show me the last for .
Show Decoded

2014-07-29 22:35 METAR KEZF 300235Z AUTO 00000KT 10SM SCT080 BKN090 18/13 A3003 RMK AO2 T01780130
                 =
2014-07-29 22:15 METAR KEZF 300215Z AUTO 00000KT 10SM BKN085 18/13 A3002 RMK AO2 T01760127 =
2014-07-29 21:55 METAR KEZF 300155Z AUTO 00000KT 10SM SCT085 18/13 A3002 RMK AO2 T01840126 =
2014-07-29 21:35 METAR KEZF 300135Z AUTO 00000KT 10SM CLR 20/12 A3001 RMK AO2 T02000117 =
2014-07-29 21:15 METAR KEZF 300115Z AUTO 35004KT 10SM SCT080 20/12 A3000 RMK AO2 T02030115 =
2014-07-29 20:55 METAR KEZF 300055Z AUTO 34006KT 10SM SCT080 21/12 A3000 RMK AO2 T02060115 =
2014-07-29 20:35 METAR KEZF 300035Z AUTO 00000KT 10SM CLR 21/11 A2999 RMK AO2 T02130113 =
2014-07-29 20:15 METAR KEZF 300015Z AUTO 35004KT 10SM CLR 22/11 A2999 RMK AO2 T02170111 =
2014-07-29 19:55 METAR KEZF 292355Z AUTO 35003KT 10SM CLR 22/11 A2998 RMK AO2 T02240108 10261
                 20224 =
2014-07-29 19:35 METAR KEZF 292335Z AUTO 35006KT 10SM CLR 23/10 A2998 RMK AO2 T02300102 =
2014-07-29 19:15 METAR KEZF 292315Z AUTO 36008KT 10SM CLR 24/11 A2997 RMK AO2 T02350106 =
2014-07-29 18:55 METAR KEZF 292255Z AUTO 36006KT 10SM CLR 24/12 A2997 RMK AO2 T02370116 =
2014-07-29 18:35 METAR KEZF 292235Z AUTO 36006KT 10SM SCT065 SCT110 24/12 A2996 RMK AO2 T02430117
                 =
2014-07-29 18:15 METAR KEZF 292215Z AUTO 02006KT 10SM CLR 25/12 A2996 RMK AO2 T02500124 =
2014-07-29 17:55 METAR KEZF 292155Z AUTO 01006KT 10SM CLR 25/12 A2995 RMK AO2 T02510115 =
2014-07-29 17:35 METAR KEZF 292135Z AUTO 32004KT 10SM SCT060 26/12 A2995 RMK AO2 T02550120 =
2014-07-29 17:15 METAR KEZF 292115Z AUTO 36008G14KT 330V040 10SM SCT060 BKN070 25/11 A2994 RMK
                 AO2 T02540114 =
2014-07-29 16:55 METAR KEZF 292055Z AUTO 00000KT 10SM SCT075 SCT090 25/12 A2994 RMK AO2 T02520121
                 =
2014-07-29 16:35 METAR KEZF 292035Z AUTO 31008KT 10SM SCT075 SCT090 SCT110 26/13 A2994 RMK AO2
                 T02590125 =
2014-07-29 16:15 METAR KEZF 292015Z AUTO 30006KT 10SM SCT055 SCT065 SCT085 26/12 A2993 RMK AO2
                 T02590119 =
2014-07-29 15:55 METAR KEZF 291955Z AUTO 32007KT 300V360 10SM SCT055 BKN065 BKN085 25/12 A2993
                 RMK AO2 T02500123 =
2014-07-29 15:35 METAR KEZF 291935Z AUTO 35009KT 10SM BKN060 BKN065 BKN095 25/12 A2994 RMK AO2
                 T02480120 =
2014-07-29 15:15 METAR KEZF 291915Z AUTO 35008KT 10SM SCT060 SCT080 SCT095 25/13 A2993 RMK AO2
                 T02520125 =
2014-07-29 14:55 METAR KEZF 291855Z AUTO 31007KT 270V340 10SM BKN060 BKN070 BKN080 25/13 A2994
                 RMK AO2 T02470125 =
2014-07-29 14:35 METAR KEZF 291835Z AUTO 31012G16KT 10SM SCT050 BKN075 25/12 A2994 RMK AO2
                 T02480123 =
2014-07-29 14:15 METAR KEZF 291815Z AUTO 27005KT 10SM SCT050 BKN065 25/12 A2994 RMK AO2 T02450123
                 =
2014-07-29 13:55 METAR KEZF 291755Z AUTO 27010G15KT 10SM BKN050 BKN065 25/13 A2994 RMK AO2
                 T02480128 10250 20185 =
2014-07-29 13:35 METAR KEZF 291735Z AUTO 29008KT 250V310 10SM SCT050 25/12 A2994 RMK AO2
                 T02500122 =
2014-07-29 13:15 METAR KEZF 291715Z AUTO 30011G14KT 10SM CLR 25/12 A2994 RMK AO2 T02480119 =
2014-07-29 12:55 METAR KEZF 291655Z AUTO 32009G16KT 10SM CLR 24/11 A2994 RMK AO2 T02420114 =
2014-07-29 12:35 METAR KEZF 291635Z AUTO 29012KT 10SM CLR 24/11 A2994 RMK AO2 T02410112 =
2014-07-29 12:15 METAR KEZF 291615Z AUTO 30008KT 260V320 10SM CLR 24/12 A2994 RMK AO2 T02390119 =
2014-07-29 11:55 METAR KEZF 291555Z AUTO 32010KT 10SM CLR 24/12 A2994 RMK AO2 T02350120 =
2014-07-29 11:35 METAR KEZF 291535Z AUTO 28009G14KT 10SM CLR 23/12 A2995 RMK AO2 T02260115 =
2014-07-29 11:15 METAR KEZF 291515Z AUTO 30007KT 10SM CLR 22/12 A2995 RMK AO2 T02240118 =
2014-07-29 10:55 METAR KEZF 291455Z AUTO 29006KT 10SM CLR 22/12 A2995 RMK AO2 T02180117 =
2014-07-29 10:35 METAR KEZF 291435Z AUTO 33004KT 10SM CLR 22/12 A2995 RMK AO2 T02200119 =
2014-07-29 10:15 METAR KEZF 291415Z AUTO 29008KT 10SM CLR 22/12 A2995 RMK AO2 T02200115 =
2014-07-29 09:55 METAR KEZF 291355Z AUTO 31007KT 10SM CLR 21/11 A2996 RMK AO2 T02140109 =
2014-07-29 09:35 METAR KEZF 291335Z AUTO 34008KT 10SM CLR 21/11 A2996 RMK AO2 T02050111 =
2014-07-29 09:15 METAR KEZF 291315Z AUTO 34006KT 10SM CLR 20/11 A2996 RMK AO2 T02000114 =
2014-07-29 08:55 METAR KEZF 291255Z AUTO 32011G15KT 10SM CLR 20/11 A2996 RMK AO2 T01960112 =
2014-07-29 08:35 METAR KEZF 291235Z AUTO 32005KT 10SM CLR 19/12 A2996 RMK AO2 T01930115 =
2014-07-29 08:15 METAR KEZF 291215Z AUTO 32008KT 280V350 10SM CLR 19/12 A2995 RMK AO2 T01870121 =
2014-07-29 07:55 METAR KEZF 291155Z AUTO 31009KT 10SM CLR 19/12 A2995 RMK AO2 T01850121 10201
                 20168 =
2014-07-29 07:35 METAR KEZF 291135Z AUTO 33006KT 10SM CLR 18/12 A2994 RMK AO2 T01810121 =
2014-07-29 07:15 METAR KEZF 291115Z AUTO 32005KT 10SM CLR 18/12 A2994 RMK AO2 T01760124 =
2014-07-29 06:55 METAR KEZF 291055Z AUTO 32004KT 10SM CLR 17/13 A2993 RMK AO2 T01710126 =
2014-07-29 06:35 METAR KEZF 291035Z AUTO 31004KT 10SM CLR 17/13 A2992 RMK AO2 T01680126 =
2014-07-29 06:15 METAR KEZF 291015Z AUTO 00000KT 10SM CLR 17/13 A2992 RMK AO2 T01730127 =
2014-07-29 05:55 METAR KEZF 290955Z AUTO 00000KT 10SM CLR 17/13 A2991 RMK AO2 T01720127 =
2014-07-29 05:35 METAR KEZF 290935Z AUTO 31004KT 10SM CLR 18/13 A2991 RMK AO2 T01750127 =
2014-07-29 05:15 METAR KEZF 290915Z AUTO 31003KT 10SM CLR 18/13 A2989 RMK AO2 T01780126 =
2014-07-29 04:35 METAR KEZF 290835Z AUTO 33004KT 10SM CLR 18/13 A2988 RMK AO2 T01820132 =
2014-07-29 04:15 METAR KEZF 290815Z AUTO 34004KT 10SM CLR 18/14 A2987 RMK AO2 T01830135 =
2014-07-29 03:55 METAR KEZF 290755Z AUTO 30004KT 10SM CLR 19/13 A2987 RMK AO2 T01870133 =
2014-07-29 03:35 METAR KEZF 290735Z AUTO 32006KT 10SM CLR 19/14 A2986 RMK AO2 T01880136 =
2014-07-29 03:15 METAR KEZF 290715Z AUTO 31005KT 10SM CLR 19/14 A2986 RMK AO2 T01900140 =
2014-07-29 02:55 METAR KEZF 290655Z AUTO 32006KT 10SM CLR 20/14 A2986 RMK AO2 T01960140 =
2014-07-29 02:35 METAR KEZF 290635Z AUTO 32004KT 10SM CLR 20/14 A2986 RMK AO2 T01970141 =
2014-07-29 02:15 METAR KEZF 290615Z AUTO 30005KT 10SM CLR 20/14 A2986 RMK AO2 T02000142 =
2014-07-29 01:55 METAR KEZF 290555Z AUTO 30004KT 7SM CLR 20/14 A2986 RMK AO2 T02010143 10261
                 20201 403050201 =
2014-07-29 01:15 METAR KEZF 290515Z AUTO 32004KT 10SM CLR 21/15 A2984 RMK AO2 T02050146 =
2014-07-29 00:55 METAR KEZF 290455Z AUTO 32005KT 10SM CLR 21/15 A2984 RMK AO2 T02080147 =
2014-07-29 00:35 METAR KEZF 290435Z AUTO 30007KT 10SM CLR 21/15 A2984 RMK AO2 T02110147 =
2014-07-29 00:15 METAR KEZF 290415Z AUTO 30006KT 10SM CLR 21/15 A2984 RMK AO2 T02120149 =
2014-07-28 23:55 METAR KEZF 290355Z AUTO 33004KT 10SM CLR 22/15 A2984 RMK AO2 T02150151 =
2014-07-28 23:15 METAR KEZF 290315Z AUTO 31005KT 10SM CLR 22/15 A2984 RMK AO2 T02210150 =

Support USWX by starting your Amazon purchase here.